sensor_id;sensor_type;location;lat;lon;timestamp;pressure;altitude;pressure_sealevel;temperature;humidity
20455;BME280;10386;54.314;10.022;2023-12-20T06:47:37;100280.44;;;6.90;100.00
20455;BME280;10386;54.314;10.022;2023-12-20T06:50:05;100282.56;;;6.85;100.00
20455;BME280;10386;54.314;10.022;2023-12-20T06:52:32;100329.19;;;6.87;100.00
20455;BME280;10386;54.314;10.022;2023-12-20T06:54:59;100330.34;;;6.83;100.00
20455;BME280;10386;54.314;10.022;2023-12-20T06:57:27;100325.41;;;6.90;100.00
20455;BME280;10386;54.314;10.022;2023-12-20T06:59:54;100320.34;;;6.85;100.00
20455;BME280;10386;54.314;10.022;2023-12-20T07:02:20;100312.44;;;6.82;100.00
20455;BME280;10386;54.314;10.022;2023-12-20T07:04:49;100317.91;;;6.81;100.00
20455;BME280;10386;54.314;10.022;2023-12-20T07:07:16;100317.22;;;6.78;100.00
20455;BME280;10386;54.314;10.022;2023-12-20T07:09:43;100311.56;;;6.68;100.00
20455;BME280;10386;54.314;10.022;2023-12-20T07:12:09;100310.03;;;6.64;100.00
20455;BME280;10386;54.314;10.022;2023-12-20T07:14:36;100309.16;;;6.64;100.00
20455;BME280;10386;54.314;10.022;2023-12-20T07:17:03;100313.31;;;6.69;100.00
20455;BME280;10386;54.314;10.022;2023-12-20T07:19:30;100304.91;;;6.60;100.00
20455;BME280;10386;54.314;10.022;2023-12-20T07:21:57;100307.81;;;6.57;100.00
20455;BME280;10386;54.314;10.022;2023-12-20T07:24:24;100325.25;;;6.51;100.00
20455;BME280;10386;54.314;10.022;2023-12-20T07:26:51;100314.47;;;6.51;100.00
20455;BME280;10386;54.314;10.022;2023-12-20T07:29:19;100332.97;;;6.57;100.00
20455;BME280;10386;54.314;10.022;2023-12-20T07:31:46;100336.31;;;6.61;100.00
20455;BME280;10386;54.314;10.022;2023-12-20T07:34:14;100328.13;;;6.76;100.00
20455;BME280;10386;54.314;10.022;2023-12-20T07:36:41;100415.09;;;6.79;100.00
20455;BME280;10386;54.314;10.022;2023-12-20T07:39:08;100405.97;;;6.82;100.00
20455;BME280;10386;54.314;10.022;2023-12-20T07:41:34;100396.34;;;6.78;100.00
20455;BME280;10386;54.314;10.022;2023-12-20T07:44:02;100398.25;;;6.76;100.00
20455;BME280;10386;54.314;10.022;2023-12-20T07:46:29;100403.38;;;6.81;100.00
20455;BME280;10386;54.314;10.022;2023-12-20T07:48:56;100392.69;;;6.79;100.00
20455;BME280;10386;54.314;10.022;2023-12-20T07:51:23;100392.28;;;6.85;100.00
20455;BME280;10386;54.314;10.022;2023-12-20T07:53:51;100379.88;;;6.82;100.00
20455;BME280;10386;54.314;10.022;2023-12-20T07:56:19;100371.28;;;6.76;100.00
20455;BME280;10386;54.314;10.022;2023-12-20T07:58:46;100368.47;;;6.78;100.00
20455;BME280;10386;54.314;10.022;2023-12-20T08:01:19;100376.56;;;6.78;100.00
20455;BME280;10386;54.314;10.022;2023-12-20T08:03:49;100383.53;;;6.82;100.00
20455;BME280;10386;54.314;10.022;2023-12-20T08:06:16;100383.91;;;6.89;100.00
20455;BME280;10386;54.314;10.022;2023-12-20T08:08:44;100380.53;;;6.86;100.00
20455;BME280;10386;54.314;10.022;2023-12-20T08:11:20;100364.75;;;6.80;100.00
20455;BME280;10386;54.314;10.022;2023-12-20T08:13:48;100352.03;;;6.82;100.00
20455;BME280;10386;54.314;10.022;2023-12-20T08:16:15;100353.25;;;6.77;100.00
20455;BME280;10386;54.314;10.022;2023-12-20T08:18:44;100343.75;;;6.71;100.00
20455;BME280;10386;54.314;10.022;2023-12-20T08:21:12;100342.00;;;6.70;100.00
20455;BME280;10386;54.314;10.022;2023-12-20T08:23:39;100347.59;;;6.67;100.00
20455;BME280;10386;54.314;10.022;2023-12-20T08:26:07;100386.59;;;6.62;100.00
20455;BME280;10386;54.314;10.022;2023-12-20T08:28:34;100396.72;;;6.58;100.00
20455;BME280;10386;54.314;10.022;2023-12-20T08:31:03;100405.97;;;6.54;100.00
20455;BME280;10386;54.314;10.022;2023-12-20T08:33:30;100432.13;;;6.38;100.00
20455;BME280;10386;54.314;10.022;2023-12-20T08:35:57;100422.06;;;6.26;100.00
20455;BME280;10386;54.314;10.022;2023-12-20T08:38:24;100400.25;;;6.01;100.00
20455;BME280;10386;54.314;10.022;2023-12-20T08:40:51;100395.16;;;5.97;100.00
20455;BME280;10386;54.314;10.022;2023-12-20T08:43:18;100370.72;;;6.00;100.00
20455;BME280;10386;54.314;10.022;2023-12-20T08:45:45;100356.72;;;5.93;100.00
20455;BME280;10386;54.314;10.022;2023-12-20T08:48:12;100345.19;;;5.91;100.00
20455;BME280;10386;54.314;10.022;2023-12-20T08:50:39;100352.16;;;5.80;100.00
20455;BME280;10386;54.314;10.022;2023-12-20T08:53:07;100359.97;;;5.84;100.00
20455;BME280;10386;54.314;10.022;2023-12-20T08:55:33;100363.81;;;5.80;100.00
20455;BME280;10386;54.314;10.022;2023-12-20T08:58:01;100369.28;;;5.79;100.00
20455;BME280;10386;54.314;10.022;2023-12-20T09:00:28;100390.97;;;5.76;100.00
20455;BME280;10386;54.314;10.022;2023-12-20T09:02:56;100395.56;;;5.74;100.00
20455;BME280;10386;54.314;10.022;2023-12-20T09:05:24;100402.03;;;5.71;100.00
20455;BME280;10386;54.314;10.022;2023-12-20T09:07:51;100401.31;;;5.68;100.00
20455;BME280;10386;54.314;10.022;2023-12-20T09:10:18;100410.63;;;5.62;100.00
20455;BME280;10386;54.314;10.022;2023-12-20T09:12:52;100417.22;;;5.72;100.00
20455;BME280;10386;54.314;10.022;2023-12-20T09:15:26;100418.34;;;5.68;100.00
20455;BME280;10386;54.314;10.022;2023-12-20T09:17:53;100426.78;;;5.78;100.00
20455;BME280;10386;54.314;10.022;2023-12-20T09:20:21;100429.97;;;5.69;100.00
20455;BME280;10386;54.314;10.022;2023-12-20T09:22:50;100434.34;;;5.71;100.00
20455;BME280;10386;54.314;10.022;2023-12-20T09:25:19;100438.47;;;5.77;100.00
20455;BME280;10386;54.314;10.022;2023-12-20T09:27:47;100446.06;;;5.70;100.00
20455;BME280;10386;54.314;10.022;2023-12-20T09:30:16;100450.56;;;5.70;100.00
20455;BME280;10386;54.314;10.022;2023-12-20T09:32:54;100458.81;;;5.67;100.00
20455;BME280;10386;54.314;10.022;2023-12-20T09:35:21;100457.50;;;5.74;100.00
20455;BME280;10386;54.314;10.022;2023-12-20T09:37:50;100463.28;;;5.83;100.00
20455;BME280;10386;54.314;10.022;2023-12-20T09:40:20;100456.75;;;5.87;100.00
20455;BME280;10386;54.314;10.022;2023-12-20T09:42:57;100464.06;;;5.85;100.00
20455;BME280;10386;54.314;10.022;2023-12-20T09:45:26;100466.22;;;5.79;100.00
20455;BME280;10386;54.314;10.022;2023-12-20T09:47:53;100459.25;;;5.75;100.00
20455;BME280;10386;54.314;10.022;2023-12-20T09:50:23;100473.34;;;5.80;100.00
20455;BME280;10386;54.314;10.022;2023-12-20T09:52:53;100466.66;;;5.87;100.00
20455;BME280;10386;54.314;10.022;2023-12-20T09:55:25;100462.56;;;5.80;100.00
20455;BME280;10386;54.314;10.022;2023-12-20T09:57:53;100465.75;;;5.71;100.00
20455;BME280;10386;54.314;10.022;2023-12-20T10:00:21;100461.25;;;5.71;100.00
20455;BME280;10386;54.314;10.022;2023-12-20T10:02:59;100461.78;;;5.78;100.00
20455;BME280;10386;54.314;10.022;2023-12-20T10:05:29;100462.72;;;5.77;100.00
20455;BME280;10386;54.314;10.022;2023-12-20T10:07:58;100472.72;;;5.75;100.00
20455;BME280;10386;54.314;10.022;2023-12-20T10:10:27;100462.56;;;5.80;100.00
20455;BME280;10386;54.314;10.022;2023-12-20T10:13:11;100462.31;;;6.00;100.00
20455;BME280;10386;54.314;10.022;2023-12-20T10:15:41;100454.91;;;6.33;100.00
20455;BME280;10386;54.314;10.022;2023-12-20T10:18:11;100450.69;;;6.43;100.00
20455;BME280;10386;54.314;10.022;2023-12-20T10:20:40;100463.25;;;6.58;100.00
20455;BME280;10386;54.314;10.022;2023-12-20T10:23:11;100456.19;;;6.41;100.00
20455;BME280;10386;54.314;10.022;2023-12-20T10:25:41;100447.97;;;6.29;100.00
20455;BME280;10386;54.314;10.022;2023-12-20T10:28:14;100430.13;;;6.26;100.00
20455;BME280;10386;54.314;10.022;2023-12-20T10:30:44;100432.44;;;6.18;100.00
20455;BME280;10386;54.314;10.022;2023-12-20T10:33:11;100453.59;;;5.95;100.00
20455;BME280;10386;54.314;10.022;2023-12-20T10:35:39;100444.06;;;5.89;100.00
20455;BME280;10386;54.314;10.022;2023-12-20T10:38:12;100446.59;;;5.92;100.00
20455;BME280;10386;54.314;10.022;2023-12-20T10:40:41;100449.88;;;5.97;100.00
20455;BME280;10386;54.314;10.022;2023-12-20T10:43:11;100448.38;;;5.92;100.00
20455;BME280;10386;54.314;10.022;2023-12-20T10:45:44;100416.41;;;6.01;100.00
20455;BME280;10386;54.314;10.022;2023-12-20T10:48:12;100422.59;;;6.17;100.00
20455;BME280;10386;54.314;10.022;2023-12-20T10:50:41;100433.88;;;6.39;100.00
20455;BME280;10386;54.314;10.022;2023-12-20T10:53:08;100424.03;;;6.38;100.00
20455;BME280;10386;54.314;10.022;2023-12-20T10:55:36;100434.72;;;6.40;100.00
20455;BME280;10386;54.314;10.022;2023-12-20T10:58:08;100419.28;;;6.28;100.00
20455;BME280;10386;54.314;10.022;2023-12-20T11:00:45;100415.56;;;6.01;100.00
20455;BME280;10386;54.314;10.022;2023-12-20T11:03:14;100419.72;;;5.91;100.00
20455;BME280;10386;54.314;10.022;2023-12-20T11:05:52;100416.25;;;5.89;100.00
20455;BME280;10386;54.314;10.022;2023-12-20T11:11:08;100427.72;;;5.92;100.00
20455;BME280;10386;54.314;10.022;2023-12-20T11:13:44;100427.50;;;6.11;100.00
20455;BME280;10386;54.314;10.022;2023-12-20T11:16:16;100426.41;;;6.29;100.00
20455;BME280;10386;54.314;10.022;2023-12-20T11:18:47;100421.50;;;6.35;100.00
20455;BME280;10386;54.314;10.022;2023-12-20T11:21:15;100427.13;;;6.46;100.00
20455;BME280;10386;54.314;10.022;2023-12-20T11:23:43;100428.09;;;6.45;100.00
20455;BME280;10386;54.314;10.022;2023-12-20T11:26:23;100423.13;;;6.67;100.00
20455;BME280;10386;54.314;10.022;2023-12-20T11:29:37;100428.22;;;6.72;100.00
20455;BME280;10386;54.314;10.022;2023-12-20T11:34:50;100433.59;;;6.58;100.00
20455;BME280;10386;54.314;10.022;2023-12-20T11:37:19;100439.94;;;6.57;100.00
20455;BME280;10386;54.314;10.022;2023-12-20T11:39:55;100463.66;;;6.66;100.00
20455;BME280;10386;54.314;10.022;2023-12-20T11:42:33;100461.91;;;6.65;100.00
20455;BME280;10386;54.314;10.022;2023-12-20T11:45:17;100469.75;;;6.69;100.00
20455;BME280;10386;54.314;10.022;2023-12-20T11:47:51;100475.13;;;6.69;100.00
20455;BME280;10386;54.314;10.022;2023-12-20T11:50:23;100473.47;;;6.67;100.00
20455;BME280;10386;54.314;10.022;2023-12-20T11:52:56;100475.13;;;6.69;100.00
20455;BME280;10386;54.314;10.022;2023-12-20T12:51:38;100602.69;;;6.71;100.00
20455;BME280;10386;54.314;10.022;2023-12-20T12:54:05;100614.66;;;6.81;100.00
20455;BME280;10386;54.314;10.022;2023-12-20T12:56:35;100610.03;;;6.83;100.00
20455;BME280;10386;54.314;10.022;2023-12-20T12:59:05;100611.78;;;6.84;100.00
20455;BME280;10386;54.314;10.022;2023-12-20T13:01:35;100604.56;;;6.84;100.00
20455;BME280;10386;54.314;10.022;2023-12-20T13:04:20;100619.03;;;6.83;100.00
20455;BME280;10386;54.314;10.022;2023-12-20T13:07:18;100617.94;;;6.86;100.00
20455;BME280;10386;54.314;10.022;2023-12-20T13:10:20;100623.28;;;6.87;100.00
20455;BME280;10386;54.314;10.022;2023-12-20T13:13:00;100626.66;;;6.91;100.00
20455;BME280;10386;54.314;10.022;2023-12-20T13:15:48;100627.53;;;6.91;100.00
20455;BME280;10386;54.314;10.022;2023-12-20T13:18:22;100619.63;;;6.88;100.00
20455;BME280;10386;54.314;10.022;2023-12-20T13:20:51;100618.28;;;6.95;100.00
20455;BME280;10386;54.314;10.022;2023-12-20T13:23:19;100617.91;;;7.01;100.00
20455;BME280;10386;54.314;10.022;2023-12-20T13:25:47;100620.88;;;6.97;100.00
20455;BME280;10386;54.314;10.022;2023-12-20T13:28:16;100628.16;;;7.10;100.00
20455;BME280;10386;54.314;10.022;2023-12-20T13:30:47;100631.31;;;7.03;100.00
20455;BME280;10386;54.314;10.022;2023-12-20T13:33:17;100631.41;;;7.01;100.00
20455;BME280;10386;54.314;10.022;2023-12-20T13:35:49;100632.19;;;7.03;100.00
20455;BME280;10386;54.314;10.022;2023-12-20T13:38:35;100632.19;;;7.03;100.00
20455;BME280;10386;54.314;10.022;2023-12-20T13:41:44;100633.41;;;6.98;100.00
20455;BME280;10386;54.314;10.022;2023-12-20T13:44:15;100639.75;;;6.97;100.00
20455;BME280;10386;54.314;10.022;2023-12-20T13:46:50;100642.25;;;6.86;100.00
20455;BME280;10386;54.314;10.022;2023-12-20T13:49:21;100657.13;;;6.78;100.00
20455;BME280;10386;54.314;10.022;2023-12-20T13:52:09;100670.72;;;6.76;100.00
20455;BME280;10386;54.314;10.022;2023-12-20T13:55:02;100663.75;;;6.72;100.00
20455;BME280;10386;54.314;10.022;2023-12-20T13:58:12;100682.03;;;6.67;100.00
20455;BME280;10386;54.314;10.022;2023-12-20T14:01:35;100670.28;;;6.53;100.00
20455;BME280;10386;54.314;10.022;2023-12-20T14:04:58;100681.00;;;6.39;100.00
20455;BME280;10386;54.314;10.022;2023-12-20T14:08:34;100687.09;;;6.27;100.00
20455;BME280;10386;54.314;10.022;2023-12-20T14:12:11;100684.91;;;6.18;100.00
20455;BME280;10386;54.314;10.022;2023-12-20T14:15:53;100687.50;;;6.19;100.00
20455;BME280;10386;54.314;10.022;2023-12-20T14:19:11;100705.13;;;6.09;100.00
20455;BME280;10386;54.314;10.022;2023-12-20T14:22:22;100692.97;;;6.02;100.00
20455;BME280;10386;54.314;10.022;2023-12-20T14:26:06;100690.38;;;6.01;100.00
20455;BME280;10386;54.314;10.022;2023-12-20T14:28:35;100697.84;;;5.96;100.00
20455;BME280;10386;54.314;10.022;2023-12-20T14:31:43;100699.41;;;6.00;100.00
20455;BME280;10386;54.314;10.022;2023-12-20T14:35:04;100692.69;;;5.91;100.00
20455;BME280;10386;54.314;10.022;2023-12-20T14:37:44;100697.00;;;5.78;100.00
20455;BME280;10386;54.314;10.022;2023-12-20T14:40:12;100700.13;;;5.86;100.00
20455;BME280;10386;54.314;10.022;2023-12-20T14:42:43;100714.00;;;5.96;100.00
20455;BME280;10386;54.314;10.022;2023-12-20T14:45:10;100701.00;;;5.87;100.00
20455;BME280;10386;54.314;10.022;2023-12-20T14:47:37;100710.50;;;5.77;100.00
20455;BME280;10386;54.314;10.022;2023-12-20T14:58:58;100730.72;;;5.51;100.00
20455;BME280;10386;54.314;10.022;2023-12-20T15:01:28;100725.09;;;5.56;100.00
20455;BME280;10386;54.314;10.022;2023-12-20T15:03:55;100725.88;;;5.58;100.00
20455;BME280;10386;54.314;10.022;2023-12-20T15:06:23;100727.00;;;5.54;100.00
20455;BME280;10386;54.314;10.022;2023-12-20T15:08:52;100730.97;;;5.47;100.00
20455;BME280;10386;54.314;10.022;2023-12-20T15:11:26;100727.72;;;5.57;100.00
20455;BME280;10386;54.314;10.022;2023-12-20T15:13:56;100728.25;;;5.64;100.00
20455;BME280;10386;54.314;10.022;2023-12-20T15:16:31;100728.13;;;5.50;100.00
20455;BME280;10386;54.314;10.022;2023-12-20T15:19:04;100724.09;;;5.58;100.00
20455;BME280;10386;54.314;10.022;2023-12-20T15:21:35;100731.75;;;5.49;100.00
20455;BME280;10386;54.314;10.022;2023-12-20T15:24:11;100732.38;;;5.54;100.00
20455;BME280;10386;54.314;10.022;2023-12-20T15:27:00;100726.94;;;5.55;100.00
20455;BME280;10386;54.314;10.022;2023-12-20T15:29:40;100724.69;;;5.46;100.00
20455;BME280;10386;54.314;10.022;2023-12-20T15:32:18;100725.25;;;5.53;100.00
20455;BME280;10386;54.314;10.022;2023-12-20T15:34:46;100731.44;;;5.55;100.00
20455;BME280;10386;54.314;10.022;2023-12-20T15:37:16;100726.53;;;5.63;100.00
20455;BME280;10386;54.314;10.022;2023-12-20T15:39:55;100743.25;;;5.69;100.00
20455;BME280;10386;54.314;10.022;2023-12-20T15:42:24;100742.03;;;5.75;100.00
20455;BME280;10386;54.314;10.022;2023-12-20T15:44:55;100734.28;;;5.86;100.00
20455;BME280;10386;54.314;10.022;2023-12-20T15:47:26;100742.13;;;5.90;100.00
20455;BME280;10386;54.314;10.022;2023-12-20T15:49:54;100727.47;;;5.79;100.00
20455;BME280;10386;54.314;10.022;2023-12-20T15:52:30;100741.22;;;5.73;100.00
20455;BME280;10386;54.314;10.022;2023-12-20T15:55:00;100731.56;;;5.69;100.00
20455;BME280;10386;54.314;10.022;2023-12-20T15:57:31;100715.75;;;5.63;100.00
20455;BME280;10386;54.314;10.022;2023-12-20T16:00:19;100713.94;;;5.63;100.00
20455;BME280;10386;54.314;10.022;2023-12-20T16:03:15;100708.13;;;5.71;100.00
20455;BME280;10386;54.314;10.022;2023-12-20T16:05:57;100702.41;;;5.77;100.00
20455;BME280;10386;54.314;10.022;2023-12-20T16:08:40;100702.38;;;5.78;100.00
20455;BME280;10386;54.314;10.022;2023-12-20T16:11:12;100706.66;;;5.82;100.00
20455;BME280;10386;54.314;10.022;2023-12-20T16:13:44;100703.78;;;5.85;100.00
20455;BME280;10386;54.314;10.022;2023-12-20T16:16:15;100719.69;;;5.90;100.00
20455;BME280;10386;54.314;10.022;2023-12-20T16:18:43;100716.94;;;5.91;100.00
20455;BME280;10386;54.314;10.022;2023-12-20T16:21:19;100719.94;;;5.85;100.00
20455;BME280;10386;54.314;10.022;2023-12-20T16:24:22;100727.75;;;5.90;100.00
20455;BME280;10386;54.314;10.022;2023-12-20T16:26:53;100726.50;;;5.97;100.00
20455;BME280;10386;54.314;10.022;2023-12-20T16:29:21;100726.50;;;5.97;100.00
20455;BME280;10386;54.314;10.022;2023-12-20T16:31:49;100730.16;;;5.96;100.00
20455;BME280;10386;54.314;10.022;2023-12-20T16:34:22;100727.75;;;5.90;100.00
20455;BME280;10386;54.314;10.022;2023-12-20T16:36:54;100720.97;;;5.83;100.00
20455;BME280;10386;54.314;10.022;2023-12-20T16:39:23;100718.91;;;5.88;100.00
20455;BME280;10386;54.314;10.022;2023-12-20T16:41:50;100724.13;;;5.91;100.00
20455;BME280;10386;54.314;10.022;2023-12-20T16:44:17;100723.75;;;5.81;100.00
20455;BME280;10386;54.314;10.022;2023-12-20T16:46:51;100714.13;;;5.76;100.00
20455;BME280;10386;54.314;10.022;2023-12-20T16:49:23;100714.97;;;5.78;100.00
20455;BME280;10386;54.314;10.022;2023-12-20T16:51:55;100714.56;;;5.85;100.00
20455;BME280;10386;54.314;10.022;2023-12-20T16:54:23;100702.38;;;5.78;100.00
20455;BME280;10386;54.314;10.022;2023-12-20T16:56:50;100710.19;;;5.83;100.00
20455;BME280;10386;54.314;10.022;2023-12-20T16:59:18;100708.56;;;5.80;100.00
20455;BME280;10386;54.314;10.022;2023-12-20T17:01:45;100710.19;;;5.83;100.00
20455;BME280;10386;54.314;10.022;2023-12-20T17:04:15;100708.63;;;5.79;100.00
20455;BME280;10386;54.314;10.022;2023-12-20T17:06:42;100704.03;;;5.81;100.00
20455;BME280;10386;54.314;10.022;2023-12-20T17:09:10;100713.00;;;5.81;100.00
20455;BME280;10386;54.314;10.022;2023-12-20T17:11:43;100703.78;;;5.85;100.00
20455;BME280;10386;54.314;10.022;2023-12-20T17:14:10;100706.22;;;5.90;100.00
20455;BME280;10386;54.314;10.022;2023-12-20T17:16:40;100708.44;;;5.82;100.00
20455;BME280;10386;54.314;10.022;2023-12-20T17:19:46;100703.06;;;5.82;100.00
20455;BME280;10386;54.314;10.022;2023-12-20T17:22:45;100712.81;;;5.84;100.00
20455;BME280;10386;54.314;10.022;2023-12-20T17:25:15;100707.16;;;5.89;100.00
20455;BME280;10386;54.314;10.022;2023-12-20T17:27:43;100699.19;;;5.87;100.00
20455;BME280;10386;54.314;10.022;2023-12-20T17:30:13;100706.84;;;5.95;100.00
20455;BME280;10386;54.314;10.022;2023-12-20T17:32:39;100701.09;;;5.85;100.00
20455;BME280;10386;54.314;10.022;2023-12-20T17:35:07;100693.81;;;5.87;100.00
20455;BME280;10386;54.314;10.022;2023-12-20T17:37:34;100684.03;;;5.85;100.00
20455;BME280;10386;54.314;10.022;2023-12-20T17:40:01;100681.28;;;5.86;100.00
20455;BME280;10386;54.314;10.022;2023-12-20T17:42:28;100685.97;;;5.83;100.00
20455;BME280;10386;54.314;10.022;2023-12-20T17:44:55;100682.13;;;5.87;100.00
20455;BME280;10386;54.314;10.022;2023-12-20T17:47:23;100684.16;;;5.83;100.00
20455;BME280;10386;54.314;10.022;2023-12-20T17:49:49;100685.97;;;5.83;100.00
20455;BME280;10386;54.314;10.022;2023-12-20T17:52:16;100688.47;;;5.86;100.00
20455;BME280;10386;54.314;10.022;2023-12-20T17:54:43;100679.44;;;5.87;100.00
20455;BME280;10386;54.314;10.022;2023-12-20T17:57:10;100679.09;;;5.93;100.00
20455;BME280;10386;54.314;10.022;2023-12-20T17:59:37;100679.88;;;5.95;100.00
20455;BME280;10386;54.314;10.022;2023-12-20T18:02:06;100672.31;;;5.86;100.00
20455;BME280;10386;54.314;10.022;2023-12-20T18:04:33;100668.06;;;5.82;100.00
20455;BME280;10386;54.314;10.022;2023-12-20T18:07:00;100667.88;;;5.85;100.00
20455;BME280;10386;54.314;10.022;2023-12-20T18:09:27;100666.94;;;5.86;100.00
20455;BME280;10386;54.314;10.022;2023-12-20T18:11:54;100661.72;;;5.83;100.00
20455;BME280;10386;54.314;10.022;2023-12-20T18:14:22;100657.22;;;5.83;100.00
20455;BME280;10386;54.314;10.022;2023-12-20T18:16:50;100643.03;;;5.80;100.00
20455;BME280;10386;54.314;10.022;2023-12-20T18:19:21;100647.38;;;5.82;100.00
20455;BME280;10386;54.314;10.022;2023-12-20T18:21:48;100639.75;;;5.90;100.00
20455;BME280;10386;54.314;10.022;2023-12-20T18:24:16;100645.22;;;5.89;100.00
20455;BME280;10386;54.314;10.022;2023-12-20T18:26:42;100630.78;;;5.90;100.00
20455;BME280;10386;54.314;10.022;2023-12-20T18:29:10;100629.53;;;5.97;100.00
20455;BME280;10386;54.314;10.022;2023-12-20T18:31:36;100632.13;;;5.98;100.00
20455;BME280;10386;54.314;10.022;2023-12-20T18:34:03;100621.34;;;5.98;100.00
20455;BME280;10386;54.314;10.022;2023-12-20T18:36:33;100618.88;;;5.94;100.00
20455;BME280;10386;54.314;10.022;2023-12-20T18:39:00;100619.84;;;5.93;100.00
20455;BME280;10386;54.314;10.022;2023-12-20T18:41:31;100616.19;;;5.94;100.00
20455;BME280;10386;54.314;10.022;2023-12-20T18:44:07;100603.59;;;5.94;100.00
20455;BME280;10386;54.314;10.022;2023-12-20T18:46:44;100594.31;;;5.84;100.00
20455;BME280;10386;54.314;10.022;2023-12-20T18:49:59;100597.06;;;5.83;100.00
20455;BME280;10386;54.314;10.022;2023-12-20T18:52:40;100588.13;;;5.82;100.00
20455;BME280;10386;54.314;10.022;2023-12-20T18:55:48;100589.09;;;5.81;100.00
20455;BME280;10386;54.314;10.022;2023-12-20T18:58:38;100582.91;;;5.79;100.00
20455;BME280;10386;54.314;10.022;2023-12-20T19:01:43;100579.28;;;5.80;100.00
20455;BME280;10386;54.314;10.022;2023-12-20T19:04:46;100577.97;;;5.87;100.00
20455;BME280;10386;54.314;10.022;2023-12-20T19:07:53;100571.03;;;5.83;100.00
20455;BME280;10386;54.314;10.022;2023-12-20T19:11:02;100561.34;;;5.95;100.00
20455;BME280;10386;54.314;10.022;2023-12-20T19:13:34;100559.78;;;5.91;100.00
20455;BME280;10386;54.314;10.022;2023-12-20T19:16:02;100560.13;;;5.85;100.00
20455;BME280;10386;54.314;10.022;2023-12-20T19:18:33;100557.56;;;5.83;100.00
20455;BME280;10386;54.314;10.022;2023-12-20T19:21:15;100543.97;;;5.85;100.00
20455;BME280;10386;54.314;10.022;2023-12-20T19:25:01;100542.25;;;5.84;100.00
20455;BME280;10386;54.314;10.022;2023-12-20T19:27:55;100539.72;;;5.81;100.00
20455;BME280;10386;54.314;10.022;2023-12-20T19:30:54;100519.38;;;5.75;100.00
20455;BME280;10386;54.314;10.022;2023-12-20T19:33:51;100520.09;;;5.79;100.00
20455;BME280;10386;54.314;10.022;2023-12-20T19:36:46;100511.19;;;5.77;100.00
20455;BME280;10386;54.314;10.022;2023-12-20T19:39:36;100502.44;;;5.73;100.00
20455;BME280;10386;54.314;10.022;2023-12-20T19:42:13;100495.38;;;5.71;100.00
20455;BME280;10386;54.314;10.022;2023-12-20T19:44:50;100482.97;;;5.68;100.00
20455;BME280;10386;54.314;10.022;2023-12-20T19:47:25;100472.22;;;5.68;100.00
20455;BME280;10386;54.314;10.022;2023-12-20T19:50:13;100470.66;;;5.64;100.00
20455;BME280;10386;54.314;10.022;2023-12-20T19:52:40;100455.00;;;5.71;100.00
20455;BME280;10386;54.314;10.022;2023-12-20T19:55:07;100447.88;;;5.70;100.00
20455;BME280;10386;54.314;10.022;2023-12-20T19:57:34;100445.34;;;5.67;100.00
20455;BME280;10386;54.314;10.022;2023-12-20T20:00:01;100442.47;;;5.70;100.00
20455;BME280;10386;54.314;10.022;2023-12-20T20:02:28;100444.41;;;5.68;100.00
20455;BME280;10386;54.314;10.022;2023-12-20T20:04:56;100428.84;;;5.73;100.00
20455;BME280;10386;54.314;10.022;2023-12-20T20:07:24;100439.53;;;5.74;100.00
20455;BME280;10386;54.314;10.022;2023-12-20T20:09:51;100418.69;;;5.78;100.00
20455;BME280;10386;54.314;10.022;2023-12-20T20:12:19;100410.69;;;5.76;100.00
20455;BME280;10386;54.314;10.022;2023-12-20T20:14:46;100407.94;;;5.78;100.00
20455;BME280;10386;54.314;10.022;2023-12-20T20:17:12;100399.66;;;5.81;100.00
20455;BME280;10386;54.314;10.022;2023-12-20T20:19:39;100376.22;;;5.83;100.00
20455;BME280;10386;54.314;10.022;2023-12-20T20:22:06;100367.09;;;5.85;100.00
20455;BME280;10386;54.314;10.022;2023-12-20T20:24:33;100358.91;;;5.87;100.00
20455;BME280;10386;54.314;10.022;2023-12-20T20:27:00;100359.09;;;5.84;100.00
20455;BME280;10386;54.314;10.022;2023-12-20T20:29:27;100346.72;;;5.95;100.00
20455;BME280;10386;54.314;10.022;2023-12-20T20:31:54;100350.81;;;5.87;100.00
20455;BME280;10386;54.314;10.022;2023-12-20T20:34:21;100341.41;;;5.94;100.00
20455;BME280;10386;54.314;10.022;2023-12-20T20:36:48;100332.22;;;5.98;100.00
20455;BME280;10386;54.314;10.022;2023-12-20T20:39:15;100319.28;;;5.89;100.00
20455;BME280;10386;54.314;10.022;2023-12-20T20:41:45;100316.50;;;5.90;100.00
20455;BME280;10386;54.314;10.022;2023-12-20T20:44:12;100313.69;;;5.92;100.00
20455;BME280;10386;54.314;10.022;2023-12-20T20:46:39;100298.25;;;6.09;100.00
20455;BME280;10386;54.314;10.022;2023-12-20T20:49:06;100303.44;;;5.98;100.00
20455;BME280;10386;54.314;10.022;2023-12-20T20:51:33;100300.47;;;6.03;100.00
20455;BME280;10386;54.314;10.022;2023-12-20T20:54:00;100289.69;;;6.03;100.00
20455;BME280;10386;54.314;10.022;2023-12-20T20:56:41;100283.94;;;6.09;100.00
20455;BME280;10386;54.314;10.022;2023-12-20T20:59:10;100272.75;;;6.01;100.00
20455;BME280;10386;54.314;10.022;2023-12-20T21:01:44;100276.75;;;5.94;100.00
20455;BME280;10386;54.314;10.022;2023-12-20T21:04:35;100275.53;;;5.99;100.00
20455;BME280;10386;54.314;10.022;2023-12-20T21:07:10;100262.56;;;6.06;100.00
20455;BME280;10386;54.314;10.022;2023-12-20T21:10:04;100249.75;;;6.09;100.00
20455;BME280;10386;54.314;10.022;2023-12-20T21:12:41;100234.94;;;6.02;100.00
20455;BME280;10386;54.314;10.022;2023-12-20T21:15:32;100236.41;;;6.08;100.00